Jellico, TN

6:56 PM EST on December 28, 2014 (GMT -0500)
Oak Ridge | Change Station
CLOSE
Current Station
Airport
Location: Oak Ridge,
Elevation: 915 ft
Nearby Weather Stations

Elev 915 ft 36.02 °N, 84.23 °W | Updated 3 minutes ago

Rain
Rain
51 °F
Feels Like 51 °F
N
0
Wind Variable Wind from North

Today
High -- | Low -- °F
--% Chance of Precip.
Yesterday
High -- | Low -- °F
Precip. -- in
7:47 AM 5:28 PM
First Quarter, 52% visible
Pressure 30.13 in
Visibility 3.0 miles
Clouds Overcast 400 ft
Dew Point 50 °F
Humidity 96%
Rainfall 0.33 in
Snow Depth Not available.
UV 0 out of 12
Pollen .10 out of 12
Air Quality Not available.
Flu Activity Not available.
METAR KOQT 282353Z AUTO 00000KT 3SM BR OVC004 11/10 A3012 RMK AO2 RAB04E18 SLP201 P0001 60001 T01060100 10117 20106 51018

More Conditions Fewer Conditions

Pressure 30.13 in
Visibility 3.0 miles
Clouds Overcast 400 ft
Dew Point 50 °F
Humidity 96%
Rainfall 0.33 in
Snow Depth Not available.
UV 0 out of 12
Pollen .10 out of 12
Air Quality Not available.
Flu Activity Not available.
METAR KOQT 282353Z AUTO 00000KT 3SM BR OVC004 11/10 A3012 RMK AO2 RAB04E18 SLP201 P0001 60001 T01060100 10117 20106 51018

More Conditions Fewer Conditions

10-Day Weather Forecast

Almanac

Astronomy

Dec. 28, 2014 Rise Set
Actual Time
Civil Twilight
Nautical Twilight
Astronomical Twilight
Moon
Length of Visible Light
Length of Day
Tomorrow will be .
, % of the Moon is Illuminated

Today's Extremes

State Highs State Lows

Community

WunderPhotos

Upload Photos

1,781,460 photos uploaded!

WunderBlogs® & News

Nearby

Air Quality

  Air Quality AQ Index Pollutant
Not available.

Snow Depth

Station Depth Elevation

Earthquake Activity

City Distance Mag. Time & Date
Minimum magnitude displayed is 2.5.

Coastal Water Temperatures

Place Temperature

Nearby Weather Stations